Time;durP1;ratioP1;P1;durP2;ratioP2;P2;SDS_P1;SDS_P2;PMS_P1;PMS_P2;Temp;Humidity;BMP_temperature;BMP_pressure;BME280_temperature;BME280_humidity;BME280_pressure;Samples;Min_cycle;Max_cycle;Signal;HPM_P1;HPM_P2
2023/06/19 00:00:22;;;;;;;5.87;3.67;;;;;;;22.28;45.14;99489.75;4309233;33;34070;-62
2023/06/19 00:02:51;;;;;;;6.43;3.33;;;;;;;22.23;45.38;99495.78;4311567;33;33796;-62
2023/06/19 00:05:19;;;;;;;6.20;3.58;;;;;;;22.25;45.26;99495.59;4315441;33;34269;-62
2023/06/19 00:07:46;;;;;;;6.03;3.03;;;;;;;22.21;45.24;99488.84;4314457;33;33201;-62
2023/06/19 00:10:14;;;;;;;7.07;3.80;;;;;;;22.24;45.23;99488.44;4317240;33;33385;-62
2023/06/19 00:12:42;;;;;;;9.00;2.85;;;;;;;22.15;45.50;99492.31;4316040;33;34933;-61
2023/06/19 00:15:10;;;;;;;7.20;3.35;;;;;;;22.17;45.45;99490.28;4315202;33;33563;-61
2023/06/19 00:17:38;;;;;;;6.22;3.17;;;;;;;22.11;45.61;99491.88;4315645;33;34495;-61
2023/06/19 00:20:06;;;;;;;4.85;2.80;;;;;;;21.99;45.84;99496.13;4315539;33;33802;-62
2023/06/19 00:22:33;;;;;;;5.00;3.33;;;;;;;22.18;45.41;99491.94;4313820;33;33913;-62
2023/06/19 00:25:01;;;;;;;7.93;3.08;;;;;;;22.21;45.40;99492.41;4315050;33;33769;-62
2023/06/19 00:27:29;;;;;;;5.18;2.85;;;;;;;22.22;45.32;99494.09;4314377;33;33162;-62
2023/06/19 00:30:01;;;;;;;6.10;3.65;;;;;;;22.25;45.25;99498.34;4316145;33;34235;-62
2023/06/19 00:32:32;;;;;;;5.78;2.90;;;;;;;22.28;45.43;99487.03;4300013;33;34058;-61
2023/06/19 00:35:00;;;;;;;6.80;3.42;;;;;;;22.26;45.51;99489.94;4310295;33;34084;-62
2023/06/19 00:37:32;;;;;;;5.35;3.25;;;;;;;22.21;45.60;99488.84;4314791;33;33196;-62
2023/06/19 00:39:59;;;;;;;6.47;2.97;;;;;;;22.18;45.72;99483.78;4314114;33;33939;-62
2023/06/19 00:42:27;;;;;;;6.50;3.03;;;;;;;22.19;45.72;99486.31;4315558;33;34935;-62
2023/06/19 00:44:54;;;;;;;5.55;3.12;;;;;;;22.15;45.74;99497.75;4316822;33;34698;-62
2023/06/19 00:47:22;;;;;;;5.25;2.92;;;;;;;22.18;45.63;99492.78;4321095;33;34264;-62
2023/06/19 00:49:51;;;;;;;6.28;3.67;;;;;;;22.18;45.46;99487.34;4335226;33;34685;-62
2023/06/19 00:52:18;;;;;;;5.53;3.17;;;;;;;22.18;45.45;99487.34;4328634;33;34122;-61
2023/06/19 00:54:46;;;;;;;9.07;4.60;;;;;;;22.21;45.40;99492.41;4333615;33;33722;-62
2023/06/19 00:57:14;;;;;;;4.85;2.70;;;;;;;22.24;45.21;99485.72;4319793;33;33411;-62
2023/06/19 00:59:41;;;;;;;7.57;4.40;;;;;;;22.21;45.37;99491.56;4318470;33;33658;-62
2023/06/19 01:02:09;;;;;;;5.60;3.05;;;;;;;22.15;45.43;99486.84;4335817;33;33934;-62
2023/06/19 01:04:37;;;;;;;4.87;2.15;;;;;;;22.15;45.50;99493.19;4330838;33;33618;-62
2023/06/19 01:07:13;;;;;;;4.57;3.05;;;;;;;22.19;45.52;99488.22;4330264;33;33194;-61
2023/06/19 01:09:51;;;;;;;6.15;3.90;;;;;;;22.23;45.20;99481.31;4333044;33;34056;-62
2023/06/19 01:12:23;;;;;;;5.70;3.15;;;;;;;22.16;45.48;99478.53;4318788;33;34599;-62
2023/06/19 01:14:59;;;;;;;6.32;3.95;;;;;;;22.21;45.60;99484.22;4315854;33;33740;-62
2023/06/19 01:17:28;;;;;;;6.60;4.00;;;;;;;22.24;45.58;99483.84;4316722;33;33404;-62
2023/06/19 01:19:57;;;;;;;6.12;3.17;;;;;;;22.22;45.53;99477.75;4304163;33;33647;-62
2023/06/19 01:22:29;;;;;;;5.53;2.85;;;;;;;22.20;45.59;99481.72;4329134;33;34259;-62
2023/06/19 01:24:58;;;;;;;8.63;4.15;;;;;;;22.10;46.02;99476.56;4333553;33;34052;-62
2023/06/19 01:27:29;;;;;;;7.78;3.40;;;;;;;22.14;45.95;99479.72;4329337;33;33141;-62
2023/06/19 01:30:02;;;;;;;6.32;3.30;;;;;;;22.06;46.10;99481.56;4328079;33;33609;-62
2023/06/19 01:33:01;;;;;;;6.45;3.12;;;;;;;22.04;46.11;99480.06;4329385;33;33997;-62
2023/06/19 01:35:32;;;;;;;5.87;3.15;;;;;;;22.07;45.98;99475.06;4329778;33;34702;-61
2023/06/19 01:38:01;;;;;;;6.37;3.30;;;;;;;21.98;46.17;99470.78;4318193;33;33171;-61
2023/06/19 01:40:31;;;;;;;6.72;3.65;;;;;;;21.95;46.21;99468.44;4315899;33;33435;-61
2023/06/19 01:43:04;;;;;;;6.15;4.00;;;;;;;21.99;46.16;99463.44;4310919;33;34614;-62
2023/06/19 01:45:32;;;;;;;4.72;2.92;;;;;;;22.00;46.33;99462.41;4330293;33;33889;-62
2023/06/19 01:48:00;;;;;;;4.65;3.10;;;;;;;21.91;46.63;99464.44;4298196;33;33345;-62
2023/06/19 01:50:27;;;;;;;14.30;2.85;;;;;;;21.99;46.48;99461.59;4296539;33;33831;-62
2023/06/19 01:52:55;;;;;;;5.50;3.08;;;;;;;22.00;46.31;99455.09;4295432;33;34798;-61
2023/06/19 01:55:23;;;;;;;6.32;3.67;;;;;;;22.00;46.18;99455.09;4298023;33;33527;-62
2023/06/19 01:57:51;;;;;;;6.80;3.55;;;;;;;21.98;45.97;99454.44;4296931;33;33765;-61
2023/06/19 02:00:19;;;;;;;6.20;3.00;;;;;;;21.89;46.21;99452.87;4296552;33;33488;-62
2023/06/19 02:02:46;;;;;;;7.68;3.45;;;;;;;21.88;46.44;99459.37;4297319;33;33599;-61
2023/06/19 02:05:15;;;;;;;7.25;4.20;;;;;;;21.81;46.64;99463.91;4297837;33;33400;-61
2023/06/19 02:07:42;;;;;;;13.27;4.22;;;;;;;21.66;46.92;99471.28;4295247;33;33804;-62
2023/06/19 02:10:10;;;;;;;6.55;3.78;;;;;;;21.59;47.04;99471.22;4297956;33;32278;-61
2023/06/19 02:12:37;;;;;;;6.90;3.37;;;;;;;21.53;47.06;99459.22;4297320;33;33771;-62
2023/06/19 02:15:05;;;;;;;5.72;3.53;;;;;;;21.57;46.90;99467.84;4298598;33;33485;-62
2023/06/19 02:17:33;;;;;;;6.35;3.30;;;;;;;21.55;47.00;99476.22;4297909;33;33325;-62
2023/06/19 02:20:07;;;;;;;5.40;3.05;;;;;;;21.56;46.94;99466.16;4324803;33;33774;-62
2023/06/19 02:22:35;;;;;;;5.80;3.33;;;;;;;21.58;46.80;99472.25;4331212;33;35218;-62
2023/06/19 02:25:03;;;;;;;5.45;3.05;;;;;;;21.48;47.09;99469.84;4330212;33;33984;-62
2023/06/19 02:27:30;;;;;;;5.95;3.17;;;;;;;21.57;46.72;99471.44;4328285;33;33959;-62
2023/06/19 02:29:59;;;;;;;4.22;2.78;;;;;;;21.58;46.81;99477.72;4332321;33;34227;-62
2023/06/19 02:32:27;;;;;;;7.60;3.85;;;;;;;21.61;46.69;99478.16;4331823;33;34360;-62
2023/06/19 02:34:55;;;;;;;5.80;3.80;;;;;;;21.63;46.61;99464.34;4328404;33;34237;-61
2023/06/19 02:37:22;;;;;;;6.80;3.60;;;;;;;21.61;47.25;99477.31;4332736;33;33083;-61
2023/06/19 02:39:50;;;;;;;7.30;4.15;;;;;;;21.44;47.35;99462.25;4338260;33;33535;-61
2023/06/19 02:42:17;;;;;;;12.93;4.18;;;;;;;21.39;47.18;99473.72;4340238;33;35327;-61
2023/06/19 02:44:45;;;;;;;6.22;4.12;;;;;;;21.35;47.03;99478.69;4335785;33;34262;-61
2023/06/19 02:47:13;;;;;;;7.90;4.00;;;;;;;21.41;46.89;99477.06;4334232;33;33211;-61
2023/06/19 02:49:40;;;;;;;6.12;2.90;;;;;;;21.36;47.03;99471.38;4328507;33;34044;-61
2023/06/19 02:52:08;;;;;;;6.15;3.30;;;;;;;21.29;47.28;99478.59;4333565;33;34178;-61
2023/06/19 02:54:36;;;;;;;4.05;2.75;;;;;;;21.30;47.28;99475.66;4342278;33;34779;-61
2023/06/19 02:57:03;;;;;;;7.97;3.85;;;;;;;21.24;47.48;99479.16;4328733;33;34094;-61
2023/06/19 02:59:31;;;;;;;6.37;3.62;;;;;;;21.26;47.43;99479.81;4329950;33;33469;-62
2023/06/19 03:01:59;;;;;;;5.03;2.67;;;;;;;21.34;47.28;99473.41;4553257;27;34196;-58
2023/06/19 03:04:26;;;;;;;11.57;4.20;;;;;;;21.34;47.36;99479.69;4364635;32;33574;-57
2023/06/19 03:06:56;;;;;;;5.97;3.10;;;;;;;21.29;47.45;99468.53;4348161;32;33153;-57
2023/06/19 03:09:23;;;;;;;4.82;3.42;;;;;;;21.28;47.59;99472.28;4354885;32;34490;-57
2023/06/19 03:11:51;;;;;;;11.57;3.65;;;;;;;21.34;47.80;99476.13;4350247;32;34842;-57
2023/06/19 03:14:19;;;;;;;6.87;3.60;;;;;;;21.38;48.00;99475.59;4357149;32;34016;-57
2023/06/19 03:16:47;;;;;;;5.65;3.12;;;;;;;21.48;48.16;99480.75;4350657;32;31956;-57
2023/06/19 03:19:14;;;;;;;7.82;4.45;;;;;;;21.53;47.85;99483.72;4356530;32;33772;-57
2023/06/19 03:21:42;;;;;;;6.85;2.92;;;;;;;21.59;48.14;99487.56;4365416;32;34460;-57
2023/06/19 03:24:10;;;;;;;7.78;3.70;;;;;;;21.69;47.73;99488.09;4355307;32;33896;-57
2023/06/19 03:26:38;;;;;;;10.35;3.80;;;;;;;21.81;47.64;99488.44;4347563;32;34292;-57
2023/06/19 03:29:06;;;;;;;6.05;3.67;;;;;;;21.84;47.73;99494.34;4354744;32;33601;-57
2023/06/19 03:31:35;;;;;;;6.00;3.62;;;;;;;21.79;47.87;99483.16;4361323;32;34193;-58
2023/06/19 03:34:02;;;;;;;5.53;3.05;;;;;;;21.90;47.58;99489.16;4352826;32;34723;-57
2023/06/19 03:36:30;;;;;;;5.07;3.22;;;;;;;22.04;47.13;99490.97;4355705;32;34437;-57
2023/06/19 03:39:00;;;;;;;7.00;3.85;;;;;;;22.09;47.05;99486.62;4351481;32;33635;-58
2023/06/19 03:41:29;;;;;;;7.70;3.78;;;;;;;22.14;46.62;99488.75;4349107;32;35120;-57
2023/06/19 03:43:57;;;;;;;3.92;2.80;;;;;;;22.23;46.86;99500.41;4361973;32;34195;-58
2023/06/19 03:46:25;;;;;;;5.30;3.35;;;;;;;22.26;47.34;99497.28;4353973;32;33661;-58
2023/06/19 03:48:53;;;;;;;8.70;3.85;;;;;;;22.29;47.41;99484.09;4361696;32;33687;-60
2023/06/19 03:51:21;;;;;;;7.87;3.75;;;;;;;22.28;47.18;99489.75;4348823;32;35012;-57
2023/06/19 03:53:49;;;;;;;13.07;4.22;;;;;;;22.26;47.22;99498.13;4354340;32;33305;-57
2023/06/19 03:56:17;;;;;;;8.93;4.28;;;;;;;22.24;47.54;99493.91;4350159;32;33546;-57
2023/06/19 03:58:44;;;;;;;6.47;4.30;;;;;;;22.33;47.29;99490.84;4348108;32;32660;-57
2023/06/19 04:01:12;;;;;;;5.12;2.95;;;;;;;22.36;47.28;99495.06;4349484;32;33664;-57
2023/06/19 04:03:40;;;;;;;8.07;3.75;;;;;;;22.37;47.03;99490.44;4351403;32;34747;-57
2023/06/19 04:06:08;;;;;;;5.60;3.25;;;;;;;22.40;47.00;99492.78;4348863;32;33884;-57
2023/06/19 04:08:38;;;;;;;5.80;3.47;;;;;;;22.45;46.32;99488.41;4355915;32;33744;-57
2023/06/19 04:11:06;;;;;;;9.30;3.80;;;;;;;22.45;46.82;99491.16;4350415;32;34969;-57
2023/06/19 04:13:34;;;;;;;7.95;4.18;;;;;;;22.46;46.89;99498.28;4356434;32;33667;-57
2023/06/19 04:16:01;;;;;;;6.28;3.30;;;;;;;22.56;46.54;99492.47;4346869;32;33393;-57
2023/06/19 04:18:29;;;;;;;8.95;3.78;;;;;;;22.61;46.55;99500.09;4351856;32;33980;-57
2023/06/19 04:20:57;;;;;;;8.00;3.85;;;;;;;22.63;46.57;99498.84;4348889;32;33519;-57
2023/06/19 04:23:24;;;;;;;8.73;4.07;;;;;;;22.68;46.34;99493.62;4348320;32;35025;-57
2023/06/19 04:25:52;;;;;;;7.97;4.10;;;;;;;22.73;46.42;99496.59;4350508;32;33156;-57
2023/06/19 04:28:20;;;;;;;8.38;5.00;;;;;;;22.77;46.22;99494.31;4361642;32;33663;-57
2023/06/19 04:30:47;;;;;;;8.05;3.75;;;;;;;22.84;45.93;99492.47;4347013;32;34188;-57
2023/06/19 04:33:15;;;;;;;8.38;3.87;;;;;;;22.93;45.76;99498.63;4351322;32;34670;-57
2023/06/19 04:35:42;;;;;;;8.23;4.15;;;;;;;22.82;46.04;99491.81;4360381;32;33657;-57
2023/06/19 04:38:10;;;;;;;8.48;4.70;;;;;;;23.05;45.89;99498.91;4364033;32;34446;-57
2023/06/19 04:40:38;;;;;;;6.32;3.70;;;;;;;23.10;45.67;99497.28;4358134;32;34141;-57
2023/06/19 04:43:05;;;;;;;10.38;3.67;;;;;;;23.08;45.91;99499.38;4359134;32;33813;-57
2023/06/19 04:45:33;;;;;;;7.60;4.50;;;;;;;23.06;46.13;99498.72;4348624;32;34197;-57
2023/06/19 04:48:03;;;;;;;5.57;3.60;;;;;;;23.09;46.26;99502.94;4352817;32;33663;-57
2023/06/19 04:50:30;;;;;;;8.18;4.28;;;;;;;23.14;46.40;99500.44;4355660;32;34641;-57
2023/06/19 04:52:58;;;;;;;9.80;4.25;;;;;;;23.24;46.75;99493.56;4369117;32;33728;-57
2023/06/19 04:55:26;;;;;;;8.32;4.37;;;;;;;23.39;47.17;99490.69;4359511;32;33858;-57
2023/06/19 04:57:53;;;;;;;8.45;4.57;;;;;;;23.50;47.28;99497.47;4349358;32;34186;-57
2023/06/19 05:00:23;;;;;;;7.45;4.60;;;;;;;23.58;46.91;99497.28;4357049;32;34228;-57
2023/06/19 05:02:51;;;;;;;12.35;5.05;;;;;;;23.64;46.83;99498.34;4348536;32;33688;-58
2023/06/19 05:05:19;;;;;;;9.07;4.70;;;;;;;23.64;46.19;99507.38;4358987;32;33429;-57
2023/06/19 05:07:50;;;;;;;8.65;3.92;;;;;;;23.75;46.07;99511.44;4347968;32;33801;-57
2023/06/19 05:10:19;;;;;;;5.40;3.62;;;;;;;23.96;45.85;99515.06;4350058;32;33874;-57
2023/06/19 05:12:46;;;;;;;9.70;5.00;;;;;;;23.82;45.32;99504.13;4349839;32;34725;-57
2023/06/19 05:15:14;;;;;;;6.55;3.72;;;;;;;23.96;45.56;99515.06;4346229;32;34379;-58
2023/06/19 05:17:42;;;;;;;9.93;4.87;;;;;;;23.93;45.43;99514.44;4349777;32;34954;-58
2023/06/19 05:20:11;;;;;;;6.90;4.07;;;;;;;24.26;45.13;99518.25;4345387;32;34222;-58
2023/06/19 05:22:39;;;;;;;7.87;4.87;;;;;;;24.13;44.98;99522.66;4345356;32;34757;-58
2023/06/19 05:25:07;;;;;;;9.25;5.07;;;;;;;24.17;44.72;99526.69;4347895;32;33274;-58
2023/06/19 05:27:34;;;;;;;9.35;3.97;;;;;;;23.92;46.18;99531.88;4350214;32;34483;-58
2023/06/19 05:30:04;;;;;;;8.02;4.28;;;;;;;23.96;46.06;99529.56;4354530;32;34028;-58
2023/06/19 05:32:32;;;;;;;10.20;4.80;;;;;;;24.11;45.55;99532.16;4352081;32;33549;-57
2023/06/19 05:34:59;;;;;;;9.80;5.65;;;;;;;24.18;44.67;99533.81;4360756;32;33805;-57
2023/06/19 05:37:27;;;;;;;9.63;5.45;;;;;;;24.19;45.10;99534.66;4357292;32;33612;-58
2023/06/19 05:39:56;;;;;;;8.23;4.45;;;;;;;23.90;45.17;99536.69;4356296;32;34493;-57
2023/06/19 05:42:24;;;;;;;7.97;4.90;;;;;;;23.74;45.72;99534.34;4354838;32;33681;-57
2023/06/19 05:44:51;;;;;;;9.23;4.85;;;;;;;23.98;45.87;99541.16;4349799;32;33215;-57
2023/06/19 05:47:20;;;;;;;7.70;4.28;;;;;;;23.90;45.63;99531.25;4346132;32;33637;-57
2023/06/19 05:49:48;;;;;;;8.25;4.90;;;;;;;24.19;45.16;99534.66;4346477;32;35291;-57
2023/06/19 05:52:16;;;;;;;9.55;4.07;;;;;;;24.10;45.24;99533.16;4339163;32;203342;-57
2023/06/19 05:54:43;;;;;;;8.30;4.03;;;;;;;24.42;45.82;99531.56;4353202;32;33202;-58
2023/06/19 05:57:11;;;;;;;7.25;4.18;;;;;;;24.36;44.01;99538.66;4357415;32;33409;-58
2023/06/19 05:59:39;;;;;;;7.40;3.85;;;;;;;24.24;43.72;99547.69;4347195;32;34962;-57
2023/06/19 06:02:07;;;;;;;7.50;4.72;;;;;;;23.99;43.73;99547.47;4351313;32;34635;-58
2023/06/19 06:04:36;;;;;;;8.75;4.55;;;;;;;24.17;44.40;99545.81;4358478;32;32532;-58
2023/06/19 06:07:04;;;;;;;9.18;5.35;;;;;;;24.65;42.36;99544.81;4349425;32;33635;-58
2023/06/19 06:09:32;;;;;;;8.45;3.85;;;;;;;24.38;43.40;99550.25;4346186;32;33758;-58
2023/06/19 06:12:00;;;;;;;10.98;5.28;;;;;;;24.23;43.60;99551.50;4353260;32;33746;-58
2023/06/19 06:14:28;;;;;;;8.65;5.37;;;;;;;24.06;44.53;99562.81;4349765;32;33573;-58
2023/06/19 06:16:56;;;;;;;8.57;4.25;;;;;;;24.43;43.60;99555.16;4355969;32;35010;-58
2023/06/19 06:19:23;;;;;;;9.43;5.35;;;;;;;24.35;44.03;99560.78;4356605;32;33674;-58
2023/06/19 06:21:51;;;;;;;8.60;4.03;;;;;;;24.62;43.89;99557.03;4352951;32;32602;-58
2023/06/19 06:24:18;;;;;;;9.48;4.80;;;;;;;24.74;43.82;99559.97;4352294;32;33299;-58
2023/06/19 06:26:46;;;;;;;13.88;4.57;;;;;;;24.70;44.69;99563.34;4360680;32;33901;-58
2023/06/19 06:29:14;;;;;;;9.48;4.18;;;;;;;24.92;43.27;99553.03;4348264;32;33710;-58
2023/06/19 06:31:41;;;;;;;8.75;5.12;;;;;;;25.04;43.55;99546.69;4353109;32;33554;-58
2023/06/19 06:34:09;;;;;;;9.63;5.10;;;;;;;25.11;43.88;99560.38;4348194;32;33349;-58
2023/06/19 06:36:37;;;;;;;9.93;5.10;;;;;;;24.89;44.13;99561.66;4350102;32;33930;-58
2023/06/19 06:39:16;;;;;;;8.23;5.53;;;;;;;24.96;44.28;99568.81;4357738;32;34377;-58
2023/06/19 06:41:43;;;;;;;7.70;5.20;;;;;;;24.69;45.34;99565.25;4358489;32;33993;-58
2023/06/19 06:44:12;;;;;;;9.57;5.05;;;;;;;25.02;44.74;99564.38;4352468;32;34233;-58
2023/06/19 06:46:40;;;;;;;9.10;5.75;;;;;;;25.44;43.55;99565.78;4356617;32;33434;-58
2023/06/19 06:49:07;;;;;;;8.43;5.47;;;;;;;25.05;44.70;99569.44;4350089;32;35186;-58
2023/06/19 06:51:35;;;;;;;15.55;6.65;;;;;;;25.28;44.47;99567.09;4350025;32;34762;-58
2023/06/19 06:54:03;;;;;;;13.20;4.37;;;;;;;25.01;44.94;99565.44;4359952;32;33858;-57
2023/06/19 06:56:30;;;;;;;14.52;5.00;;;;;;;25.56;43.83;99563.22;4353308;32;33855;-57
2023/06/19 06:58:57;;;;;;;7.95;5.03;;;;;;;24.87;44.91;99567.31;4350350;32;33836;-58
2023/06/19 07:01:25;;;;;;;10.13;5.18;;;;;;;25.52;43.74;99561.94;4350693;32;33709;-58
2023/06/19 07:03:53;;;;;;;9.32;5.20;;;;;;;25.78;43.73;99566.50;4346751;32;33374;-57
2023/06/19 07:06:21;;;;;;;7.20;4.68;;;;;;;25.70;43.34;99564.84;4343382;32;34239;-58
2023/06/19 07:08:49;;;;;;;18.83;5.00;;;;;;;25.19;44.21;99568.38;4346958;32;33813;-58
2023/06/19 07:11:17;;;;;;;10.88;4.55;;;;;;;25.81;44.39;99563.38;4346241;32;34571;-58
2023/06/19 07:13:44;;;;;;;10.20;4.80;;;;;;;26.07;43.00;99567.00;4347145;32;34232;-58
2023/06/19 07:16:12;;;;;;;6.97;4.00;;;;;;;25.63;43.80;99558.53;4355119;32;33459;-58
2023/06/19 07:18:41;;;;;;;12.48;4.15;;;;;;;25.83;43.76;99560.38;4360888;32;34312;-58
2023/06/19 07:21:12;;;;;;;10.52;4.07;;;;;;;26.09;41.40;99546.53;4346024;32;33608;-57
2023/06/19 07:23:41;;;;;;;7.10;3.95;;;;;;;26.32;41.09;99556.91;4347368;32;33172;-58
2023/06/19 07:26:09;;;;;;;14.02;5.12;;;;;;;26.44;41.33;99557.88;4346284;32;33692;-58
2023/06/19 07:28:37;;;;;;;6.78;3.67;;;;;;;26.55;39.79;99550.87;4359149;32;35294;-58
2023/06/19 07:31:05;;;;;;;8.80;3.87;;;;;;;26.70;37.37;99545.88;4362835;32;32855;-58
2023/06/19 07:33:32;;;;;;;6.55;3.70;;;;;;;26.95;37.18;99548.63;4368666;32;33306;-58
2023/06/19 07:36:02;;;;;;;7.78;3.92;;;;;;;26.76;36.85;99557.03;4332033;33;32707;-57
2023/06/19 07:38:30;;;;;;;8.13;4.95;;;;;;;26.92;35.49;99551.81;4339855;33;34270;-58
2023/06/19 07:40:57;;;;;;;20.20;6.72;;;;;;;26.66;37.30;99550.16;4326094;33;33996;-58
2023/06/19 07:43:25;;;;;;;11.32;5.45;;;;;;;27.13;37.32;99557.97;4321805;33;33126;-58
2023/06/19 07:45:53;;;;;;;73.22;15.35;;;;;;;27.28;37.65;99549.38;4326616;33;34281;-57
2023/06/19 07:48:20;;;;;;;7.68;4.10;;;;;;;27.33;35.61;99549.53;4319535;33;33681;-58
2023/06/19 07:50:53;;;;;;;6.25;3.10;;;;;;;27.34;35.43;99551.19;4336463;33;33778;-58
2023/06/19 07:53:21;;;;;;;5.00;3.33;;;;;;;27.13;36.06;99555.22;4337059;33;33118;-59
2023/06/19 07:55:48;;;;;;;5.07;2.87;;;;;;;27.29;35.64;99545.56;4332190;33;33554;-58
2023/06/19 07:58:16;;;;;;;7.05;3.80;;;;;;;27.31;34.67;99548.91;4313776;33;32270;-58
2023/06/19 08:00:44;;;;;;;7.53;4.20;;;;;;;27.17;36.41;99545.47;4310555;33;33325;-58
2023/06/19 08:03:12;;;;;;;8.48;4.37;;;;;;;27.43;36.49;99551.75;4311516;33;34437;-58
2023/06/19 08:05:40;;;;;;;6.78;4.18;;;;;;;27.50;35.97;99547.84;4310517;33;33740;-58
2023/06/19 08:08:07;;;;;;;7.03;4.12;;;;;;;27.68;35.84;99551.66;4310132;33;33790;-58
2023/06/19 08:10:35;;;;;;;7.35;4.95;;;;;;;27.52;36.28;99550.38;4314620;33;34641;-58
2023/06/19 08:13:03;;;;;;;9.38;4.90;;;;;;;27.35;37.07;99556.50;4317308;33;33625;-58
2023/06/19 08:15:30;;;;;;;7.90;4.32;;;;;;;27.10;37.07;99539.19;4309288;33;33738;-58
2023/06/19 08:17:58;;;;;;;9.15;4.40;;;;;;;27.61;36.78;99555.34;4312668;33;33906;-58
2023/06/19 08:20:26;;;;;;;6.53;3.83;;;;;;;27.92;36.08;99550.72;4308625;33;33946;-58
2023/06/19 08:22:54;;;;;;;9.00;4.20;;;;;;;28.07;35.45;99556.66;4302234;33;33194;-58
2023/06/19 08:25:21;;;;;;;7.32;3.75;;;;;;;28.18;34.35;99551.41;4305606;33;33497;-58
2023/06/19 08:27:49;;;;;;;7.62;4.35;;;;;;;28.07;35.08;99553.06;4313005;33;33467;-58
2023/06/19 08:30:17;;;;;;;7.00;4.10;;;;;;;28.19;35.58;99556.69;4339814;32;35299;-59
2023/06/19 08:32:46;;;;;;;12.20;4.87;;;;;;;28.29;35.07;99548.72;4351221;32;34113;-58
2023/06/19 08:35:15;;;;;;;8.10;4.43;;;;;;;27.86;36.41;99548.88;4349854;32;33605;-58
2023/06/19 08:37:43;;;;;;;10.48;4.57;;;;;;;28.44;35.29;99548.28;4348104;32;34950;-58
2023/06/19 08:40:12;;;;;;;7.20;4.22;;;;;;;27.91;35.27;99550.97;4347447;32;33479;-59
2023/06/19 08:42:39;;;;;;;6.65;4.15;;;;;;;28.29;35.79;99553.38;4354876;32;33531;-60
2023/06/19 08:45:07;;;;;;;10.45;4.55;;;;;;;28.17;34.83;99553.31;4363814;32;33538;-59
2023/06/19 08:47:35;;;;;;;7.78;4.70;;;;;;;28.12;35.83;99550.44;4353741;32;33774;-60
2023/06/19 08:50:04;;;;;;;9.05;4.80;;;;;;;28.70;33.64;99547.03;4357193;32;33489;-60
2023/06/19 08:52:32;;;;;;;7.18;4.22;;;;;;;28.55;34.03;99550.22;4351621;32;33154;-60
2023/06/19 08:55:03;;;;;;;6.90;4.35;;;;;;;28.73;33.69;99548.44;4358676;32;33901;-59
2023/06/19 08:57:35;;;;;;;7.28;4.15;;;;;;;28.61;33.03;99544.84;4364137;32;33640;-59
2023/06/19 09:00:05;;;;;;;6.68;4.40;;;;;;;28.85;33.14;99546.53;4355788;32;33726;-59
2023/06/19 09:02:40;;;;;;;8.38;4.70;;;;;;;28.12;33.67;99544.09;4354912;32;33196;-59
2023/06/19 09:05:17;;;;;;;7.32;3.67;;;;;;;28.70;32.94;99543.41;4352268;32;33815;-58
2023/06/19 09:07:54;;;;;;;8.30;4.28;;;;;;;28.52;33.12;99545.19;4335432;32;34016;-58
2023/06/19 09:10:23;;;;;;;11.12;4.00;;;;;;;28.82;32.49;99537.91;4355334;32;33993;-58
2023/06/19 09:12:59;;;;;;;7.03;4.47;;;;;;;28.87;33.77;99540.81;4362452;32;34141;-58
2023/06/19 09:15:30;;;;;;;7.95;4.37;;;;;;;29.32;31.93;99542.97;4357773;32;35056;-58
2023/06/19 09:18:06;;;;;;;7.30;4.15;;;;;;;28.84;32.29;99550.38;4361221;32;35286;-59
2023/06/19 09:20:38;;;;;;;6.25;4.03;;;;;;;29.09;31.77;99546.59;4361156;32;33579;-58
2023/06/19 09:23:06;;;;;;;8.32;3.78;;;;;;;29.14;30.51;99538.41;4358494;32;33758;-59
2023/06/19 09:25:53;;;;;;;6.43;3.67;;;;;;;28.95;32.33;99545.94;4358943;32;34494;-58
2023/06/19 09:28:27;;;;;;;7.32;3.62;;;;;;;29.09;32.53;99550.19;4365411;32;34921;-58
2023/06/19 09:31:00;;;;;;;7.22;4.22;;;;;;;29.39;32.14;99546.41;4353689;32;34003;-59
2023/06/19 09:33:29;;;;;;;7.55;4.22;;;;;;;29.64;30.35;99541.47;4359034;32;32871;-59
2023/06/19 09:35:59;;;;;;;7.80;3.97;;;;;;;29.61;31.50;99541.13;4345709;32;33206;-58
2023/06/19 09:38:43;;;;;;;8.32;5.22;;;;;;;30.11;30.28;99534.91;4361421;32;34705;-58
2023/06/19 09:41:12;;;;;;;7.35;4.43;;;;;;;30.04;30.88;99535.06;4351282;32;33537;-59
2023/06/19 09:43:42;;;;;;;7.10;4.18;;;;;;;30.23;29.99;99527.44;4357357;32;33141;-59
2023/06/19 09:46:10;;;;;;;8.27;4.15;;;;;;;30.10;29.98;99531.31;4355558;32;33958;-58
2023/06/19 09:48:43;;;;;;;7.07;3.75;;;;;;;29.94;31.12;99538.47;4352969;32;34043;-58
2023/06/19 09:51:21;;;;;;;9.77;5.35;;;;;;;30.02;31.36;99533.66;4362515;32;33998;-58
2023/06/19 09:53:51;;;;;;;7.70;4.47;;;;;;;30.41;29.70;99534.69;4351942;32;32789;-60
2023/06/19 09:56:21;;;;;;;9.35;4.47;;;;;;;30.51;29.07;99536.78;4343922;32;34728;-58
2023/06/19 09:58:51;;;;;;;10.60;5.22;;;;;;;30.75;29.52;99527.22;4343375;32;34993;-59
2023/06/19 10:01:19;;;;;;;12.63;5.32;;;;;;;30.60;29.77;99527.81;4334991;32;34465;-58
2023/06/19 10:03:47;;;;;;;8.27;4.72;;;;;;;30.66;29.48;99516.84;4357938;32;33577;-58
2023/06/19 10:06:16;;;;;;;10.55;4.90;;;;;;;30.86;29.18;99515.28;4300803;33;33396;-59
2023/06/19 10:08:45;;;;;;;7.45;4.03;;;;;;;31.06;29.57;99509.22;4303617;33;34006;-58
2023/06/19 10:11:13;;;;;;;8.43;5.22;;;;;;;30.95;29.79;99518.47;4302842;33;34272;-58
2023/06/19 10:13:41;;;;;;;7.05;4.45;;;;;;;30.66;28.95;99503.91;4299980;33;33736;-58
2023/06/19 10:16:20;;;;;;;11.12;4.62;;;;;;;30.85;29.13;99507.22;4304133;33;33739;-58
2023/06/19 10:18:48;;;;;;;11.48;4.50;;;;;;;30.92;30.19;99507.91;4301734;33;34221;-58
2023/06/19 10:21:20;;;;;;;14.32;4.62;;;;;;;31.00;29.74;99499.16;4304885;33;33587;-59
2023/06/19 10:23:58;;;;;;;10.70;5.45;;;;;;;31.07;29.54;99501.75;4306634;33;34339;-59
2023/06/19 10:26:35;;;;;;;8.80;4.32;;;;;;;30.68;29.41;99498.94;4304871;33;33476;-58
2023/06/19 10:29:14;;;;;;;9.43;5.05;;;;;;;31.01;28.92;99508.28;4308558;33;34290;-58
2023/06/19 10:31:42;;;;;;;7.22;4.68;;;;;;;31.88;28.70;99498.34;4298936;33;32257;-58
2023/06/19 10:34:11;;;;;;;7.80;4.70;;;;;;;32.15;27.33;99492.84;4299040;33;33192;-58
2023/06/19 10:36:39;;;;;;;7.90;4.50;;;;;;;31.99;26.86;99489.94;4309603;32;34010;-59
2023/06/19 10:39:07;;;;;;;7.65;5.22;;;;;;;32.25;27.16;99490.16;4355559;32;33932;-58
2023/06/19 10:41:35;;;;;;;9.40;4.40;;;;;;;32.14;26.78;99489.25;4352714;32;33746;-59
2023/06/19 10:44:04;;;;;;;6.03;4.22;;;;;;;32.37;27.20;99493.59;4350637;32;33967;-58
2023/06/19 10:46:33;;;;;;;8.23;5.22;;;;;;;32.56;26.46;99493.25;4348587;32;34682;-59
2023/06/19 10:49:04;;;;;;;7.72;5.32;;;;;;;32.29;26.62;99493.25;4355541;32;34661;-58
2023/06/19 10:51:39;;;;;;;7.97;4.45;;;;;;;32.46;26.02;99497.59;4349278;32;33958;-58
2023/06/19 10:54:07;;;;;;;6.53;4.20;;;;;;;32.16;26.60;99497.28;4355544;32;33427;-59
2023/06/19 10:56:35;;;;;;;7.10;4.22;;;;;;;32.50;26.23;99489.59;4346701;32;35210;-59
2023/06/19 10:59:06;;;;;;;9.40;4.35;;;;;;;32.37;25.76;99490.00;4354182;32;34856;-58
2023/06/19 11:01:48;;;;;;;9.73;5.07;;;;;;;32.37;27.32;99492.78;4347297;32;34879;-64
2023/06/19 11:04:16;;;;;;;8.43;4.32;;;;;;;32.38;25.46;99486.12;4354336;32;34176;-59
2023/06/19 11:06:45;;;;;;;8.40;5.25;;;;;;;32.48;27.39;99489.00;4355356;32;34710;-59
2023/06/19 11:09:13;;;;;;;6.62;3.83;;;;;;;32.32;26.55;99482.47;4350285;32;33990;-59
2023/06/19 11:11:43;;;;;;;8.95;4.03;;;;;;;31.94;26.77;99481.59;4355095;32;33707;-59
2023/06/19 11:14:12;;;;;;;6.53;4.53;;;;;;;32.64;25.80;99487.19;4352941;32;33371;-59
2023/06/19 11:16:45;;;;;;;8.00;4.37;;;;;;;32.79;25.72;99483.69;4346515;32;33953;-59
2023/06/19 11:19:19;;;;;;;8.13;4.17;;;;;;;32.76;26.22;99482.28;4353407;32;33940;-59
2023/06/19 11:21:48;;;;;;;11.30;5.28;;;;;;;33.13;26.09;99475.87;4347250;32;34890;-59
2023/06/19 11:24:16;;;;;;;8.25;4.80;;;;;;;32.95;25.94;99479.91;4357179;32;33363;-59
2023/06/19 11:26:49;;;;;;;8.20;4.87;;;;;;;33.04;25.65;99485.84;4347411;32;34244;-59
2023/06/19 11:29:25;;;;;;;7.55;3.72;;;;;;;32.80;25.34;99486.19;4347886;32;34184;-59
2023/06/19 11:32:12;;;;;;;14.63;4.78;;;;;;;32.67;26.79;99476.41;4354373;32;32194;-59
2023/06/19 11:34:40;;;;;;;7.80;4.87;;;;;;;32.87;25.88;99472.09;4351095;32;33295;-59
2023/06/19 11:37:15;;;;;;;10.18;5.28;;;;;;;33.02;25.51;99458.38;4332661;32;34637;-59
2023/06/19 11:39:48;;;;;;;8.95;5.05;;;;;;;33.04;24.74;99466.44;4354500;32;33695;-60